Time;durP1;ratioP1;P1;durP2;ratioP2;P2;SDS_P1;SDS_P2;PMS_P1;PMS_P2;Temp;Humidity;BMP_temperature;BMP_pressure;BME280_temperature;BME280_humidity;BME280_pressure;Samples;Min_cycle;Max_cycle;Signal;HPM_P1;HPM_P2
2021/12/24 00:02:10;;;;;;;28.00;14.10;;;;;;;6.10;94.50;98434.69;4955428;28;20429;-60
2021/12/24 00:04:35;;;;;;;28.08;14.93;;;;;;;6.07;94.92;98435.16;4953418;28;20298;-60
2021/12/24 00:07:01;;;;;;;28.33;15.15;;;;;;;6.09;94.76;98426.94;4956237;28;20047;-60
2021/12/24 00:09:31;;;;;;;23.95;13.02;;;;;;;6.18;94.32;98418.38;4951628;28;20045;-60
2021/12/24 00:12:00;;;;;;;;;;;;;;;6.30;94.51;98436.19;4952711;28;20050;-63
2021/12/24 00:14:27;;;;;;;25.92;12.80;;;;;;;6.32;94.41;98412.81;4957729;28;19918;-61
2021/12/24 00:16:55;;;;;;;22.00;11.90;;;;;;;6.35;94.01;98417.66;4946368;28;20047;-60
2021/12/24 00:19:36;;;;;;;23.23;13.05;;;;;;;6.34;94.51;98410.69;4955675;28;20117;-60
2021/12/24 00:35:33;;;;;;;19.40;12.07;;;;;;;6.55;94.35;98433.25;4952037;28;20074;-60
2021/12/24 00:38:03;;;;;;;21.38;12.80;;;;;;;6.45;94.38;98425.84;4957649;28;20663;-61
2021/12/24 00:40:39;;;;;;;21.40;13.07;;;;;;;6.51;94.68;98424.91;4948647;28;20051;-61
2021/12/24 00:43:04;;;;;;;22.15;12.23;;;;;;;6.52;94.30;98421.22;4958447;28;20512;-60
2021/12/24 00:45:37;;;;;;;24.95;12.38;;;;;;;6.45;95.01;98417.88;4943682;28;20085;-60
2021/12/24 00:48:03;;;;;;;19.90;12.27;;;;;;;6.49;94.98;98424.34;4948701;28;20148;-59
2021/12/24 00:50:31;;;;;;;23.15;13.27;;;;;;;6.53;94.51;98414.03;4952485;28;20137;-62
2021/12/24 00:53:02;;;;;;;23.17;11.40;;;;;;;6.50;95.14;98415.31;4956511;28;20724;-59
2021/12/24 00:55:29;;;;;;;29.77;13.02;;;;;;;6.48;94.83;98412.06;4956313;28;20070;-59
2021/12/24 00:58:00;;;;;;;24.48;12.70;;;;;;;6.45;95.24;98412.53;4951275;28;20100;-59
2021/12/24 01:00:30;;;;;;;20.23;11.48;;;;;;;6.50;94.92;98425.16;4954702;28;20046;-59
2021/12/24 01:02:56;;;;;;;20.75;12.48;;;;;;;6.47;95.19;98427.25;4952251;28;20070;-60
2021/12/24 01:05:24;;;;;;;22.20;12.55;;;;;;;6.57;94.71;98426.63;4950452;28;20157;-60
2021/12/24 01:07:50;;;;;;;16.92;10.07;;;;;;;6.59;94.53;98429.88;4964158;28;20039;-60
2021/12/24 01:10:17;;;;;;;17.52;10.07;;;;;;;6.51;94.76;98432.88;4948119;28;20031;-59
2021/12/24 01:12:43;;;;;;;24.35;13.45;;;;;;;6.39;95.15;98432.09;4954154;28;20027;-59
2021/12/24 01:15:09;;;;;;;17.45;9.70;;;;;;;6.45;94.90;98433.84;4949900;28;20154;-60
2021/12/24 01:17:44;;;;;;;23.67;12.30;;;;;;;6.36;95.27;98432.56;4952159;28;20113;-60
2021/12/24 01:20:23;;;;;;;24.00;14.43;;;;;;;6.31;95.16;98429.81;4951714;28;20567;-61
2021/12/24 01:38:51;;;;;;;27.90;13.63;;;;;;;6.08;97.88;98406.72;4943696;28;20121;-60
2021/12/24 01:42:39;;;;;;;24.90;14.38;;;;;;;6.08;98.07;98407.50;4941956;28;20043;-60
2021/12/24 01:44:01;;;;;;;25.02;14.30;;;;;;;6.17;97.55;98414.09;4951501;28;20035;-60
2021/12/24 01:46:27;;;;;;;22.42;12.50;;;;;;;6.19;97.44;98420.00;4951140;28;20051;-60
2021/12/24 01:48:52;;;;;;;22.30;12.00;;;;;;;6.26;97.68;98410.06;4945812;28;20035;-60
2021/12/24 01:51:18;;;;;;;27.42;14.10;;;;;;;6.25;97.46;98413.72;4950049;28;20094;-59
2021/12/24 01:53:43;;;;;;;25.08;12.50;;;;;;;6.28;97.42;98393.03;4948046;28;20077;-59
2021/12/24 01:56:09;;;;;;;23.83;13.20;;;;;;;6.21;97.19;98398.47;4948335;28;20047;-59
2021/12/24 01:58:34;;;;;;;24.85;12.68;;;;;;;6.13;97.73;98391.66;4949762;28;20039;-59
2021/12/24 02:00:59;;;;;;;25.50;13.43;;;;;;;6.07;98.35;98392.59;4947382;28;20051;-59
2021/12/24 02:03:25;;;;;;;21.67;12.05;;;;;;;6.22;97.95;98381.47;4952751;28;20031;-61
2021/12/24 02:05:51;;;;;;;24.85;13.05;;;;;;;6.12;98.00;98382.06;4947448;28;20054;-59
2021/12/24 02:08:16;;;;;;;25.13;14.02;;;;;;;6.12;98.16;98381.25;4949742;28;20843;-60
2021/12/24 02:10:42;;;;;;;22.60;12.90;;;;;;;6.15;97.98;98380.78;4950517;28;20046;-59
2021/12/24 02:13:08;;;;;;;23.48;11.85;;;;;;;6.12;98.45;98376.75;4947827;28;20110;-60
2021/12/24 02:28:54;;;;;;;20.35;10.32;;;;;;;6.16;98.07;98351.28;4951497;28;20138;-59
2021/12/24 02:31:22;;;;;;;23.20;11.20;;;;;;;6.13;98.07;98351.75;4953806;28;20043;-59
2021/12/24 02:33:47;;;;;;;19.13;10.63;;;;;;;6.15;98.15;98364.81;4949007;28;20094;-59
2021/12/24 02:36:13;;;;;;;19.73;10.50;;;;;;;6.16;97.85;98361.09;4947450;28;20750;-60
2021/12/24 02:38:38;;;;;;;19.15;10.50;;;;;;;6.16;97.76;98361.09;4954131;28;20057;-60
2021/12/24 02:41:04;;;;;;;22.10;11.45;;;;;;;6.12;97.94;98366.09;4951807;28;20047;-59
2021/12/24 02:43:30;;;;;;;17.50;10.13;;;;;;;6.15;97.83;98362.97;4943319;28;20876;-60
2021/12/24 02:45:59;;;;;;;17.67;10.55;;;;;;;6.09;98.04;98371.91;4937898;29;20046;-60
2021/12/24 02:54:00;;;;;;;15.68;8.75;;;;;;;6.11;97.69;98391.06;4951188;28;20092;-59
2021/12/24 02:56:32;;;;;;;14.63;7.18;;;;;;;6.10;97.87;98392.13;4950087;28;20046;-60
2021/12/24 02:58:59;;;;;;;10.55;6.07;;;;;;;6.30;97.14;98393.59;4949736;28;20031;-60
2021/12/24 03:01:27;;;;;;;8.77;5.40;;;;;;;6.39;96.73;98392.16;4950003;28;20050;-59
2021/12/24 03:03:53;;;;;;;8.40;5.75;;;;;;;6.44;95.96;98387.78;4954903;28;20430;-59
2021/12/24 03:06:19;;;;;;;12.30;5.03;;;;;;;6.50;95.62;98380.69;4949223;28;20047;-59
2021/12/24 03:08:45;;;;;;;9.13;5.28;;;;;;;6.61;94.51;98374.50;4957782;28;20595;-60
2021/12/24 03:11:10;;;;;;;10.30;5.18;;;;;;;6.49;94.82;98360.47;4950060;28;20039;-60
2021/12/24 03:13:36;;;;;;;8.02;4.60;;;;;;;6.48;94.68;98359.63;4956735;28;20114;-60
2021/12/24 03:16:02;;;;;;;8.52;4.88;;;;;;;6.46;94.26;98360.91;4933800;28;20059;-60
2021/12/24 03:18:30;;;;;;;7.45;4.50;;;;;;;6.52;93.42;98348.53;4952291;28;20494;-59
2021/12/24 03:21:05;;;;;;;8.98;5.05;;;;;;;6.48;93.43;98342.84;4949969;28;20035;-59
2021/12/24 03:23:36;;;;;;;7.97;5.00;;;;;;;6.34;93.52;98342.34;4957654;28;20462;-60
2021/12/24 03:26:01;;;;;;;;;;;;;;;6.32;93.56;98338.28;4950594;28;20039;-60
2021/12/24 03:28:26;;;;;;;7.43;4.32;;;;;;;6.47;93.11;98349.22;4950374;28;19929;-59
2021/12/24 03:30:52;;;;;;;7.82;4.40;;;;;;;6.43;92.91;98351.53;4955714;28;20560;-60
2021/12/24 03:33:17;;;;;;;6.60;4.38;;;;;;;6.39;92.73;98349.59;4957702;28;20097;-60
2021/12/24 03:35:43;;;;;;;9.15;4.40;;;;;;;6.36;92.56;98352.72;4956690;28;20047;-59
2021/12/24 03:38:08;;;;;;;6.90;3.90;;;;;;;6.35;92.53;98353.78;4947240;28;20042;-60
2021/12/24 03:40:33;;;;;;;7.00;4.20;;;;;;;6.29;93.06;98342.25;4952083;28;20058;-59
2021/12/24 03:42:59;;;;;;;10.68;5.15;;;;;;;6.22;93.07;98337.03;4947775;28;20038;-60
2021/12/24 03:45:41;;;;;;;9.65;4.53;;;;;;;6.27;92.87;98346.97;4954297;28;20058;-60
2021/12/24 03:48:19;;;;;;;9.68;4.10;;;;;;;6.22;93.36;98345.03;4952269;28;20066;-59
2021/12/24 03:51:03;;;;;;;8.73;4.82;;;;;;;6.21;93.54;98343.38;4949093;28;20454;-59
2021/12/24 03:56:12;;;;;;;7.07;4.05;;;;;;;6.30;93.51;98351.03;4950102;28;20054;-61
2021/12/24 03:58:38;;;;;;;8.73;4.60;;;;;;;6.36;92.73;98345.53;4955813;28;20047;-60
2021/12/24 04:01:03;;;;;;;7.75;4.20;;;;;;;6.22;93.25;98339.69;4951707;28;20156;-60
2021/12/24 04:03:29;;;;;;;8.73;4.20;;;;;;;6.25;93.01;98344.53;4955756;28;20035;-59
2021/12/24 04:05:54;;;;;;;6.80;4.28;;;;;;;6.16;93.33;98335.31;4946183;28;20051;-59
2021/12/24 04:08:19;;;;;;;7.78;4.28;;;;;;;6.23;93.28;98341.31;4959376;28;20022;-60
2021/12/24 04:10:45;;;;;;;9.35;4.03;;;;;;;6.15;93.46;98340.88;4956929;28;20116;-59
2021/12/24 04:13:11;;;;;;;8.65;4.53;;;;;;;6.24;93.42;98342.09;4953267;28;20078;-59
2021/12/24 04:15:37;;;;;;;9.70;4.32;;;;;;;6.17;93.39;98336.94;4950153;28;20556;-59
2021/12/24 04:18:21;;;;;;;7.03;4.10;;;;;;;6.21;93.15;98350.56;4956344;28;20057;-59
2021/12/24 04:26:14;;;;;;;9.30;4.90;;;;;;;6.50;92.17;98345.28;4945333;28;20058;-59
2021/12/24 04:28:40;;;;;;;8.10;4.75;;;;;;;6.55;91.90;98338.19;4954420;28;20034;-59
2021/12/24 04:31:05;;;;;;;11.02;5.20;;;;;;;6.57;91.54;98330.78;4949809;28;20133;-59
2021/12/24 04:33:35;;;;;;;9.38;4.63;;;;;;;6.58;91.58;98329.72;4949402;28;20034;-59
2021/12/24 04:39:08;;;;;;;8.63;4.95;;;;;;;6.66;90.89;98332.03;4956069;28;20137;-59
2021/12/24 05:03:33;;;;;;;8.98;5.15;;;;;;;6.73;89.54;98360.34;4948655;28;20049;-59
2021/12/24 05:08:50;;;;;;;10.93;4.60;;;;;;;6.74;89.62;98345.97;4955192;28;20548;-59
2021/12/24 05:11:16;;;;;;;10.48;5.32;;;;;;;6.66;89.86;98356.00;4948458;28;20648;-60
2021/12/24 05:13:42;;;;;;;9.52;4.53;;;;;;;6.80;89.36;98353.03;4953568;28;20030;-59
2021/12/24 05:16:26;;;;;;;10.90;4.50;;;;;;;6.76;89.47;98354.53;4949974;28;20456;-59
2021/12/24 05:21:37;;;;;;;13.07;5.25;;;;;;;6.74;89.71;98335.31;4948400;28;20097;-59
2021/12/24 05:24:07;;;;;;;9.35;4.45;;;;;;;6.72;89.72;98337.44;4947451;28;20339;-59
2021/12/24 05:26:32;;;;;;;8.57;4.55;;;;;;;6.79;88.95;98338.91;4950457;28;20051;-60
2021/12/24 05:28:58;;;;;;;8.77;4.30;;;;;;;6.79;88.97;98332.75;4953176;28;20046;-59
2021/12/24 05:31:24;;;;;;;13.32;4.35;;;;;;;6.73;89.08;98339.06;4953641;28;20043;-58
2021/12/24 05:33:50;;;;;;;12.60;4.63;;;;;;;6.65;89.76;98338.38;4948424;28;20569;-59
2021/12/24 05:36:15;;;;;;;9.07;4.70;;;;;;;6.66;89.65;98336.53;4950680;28;20510;-60
2021/12/24 05:38:41;;;;;;;8.15;4.22;;;;;;;6.63;89.61;98340.47;4948740;28;20042;-61
2021/12/24 05:41:06;;;;;;;9.00;4.38;;;;;;;6.63;89.54;98340.47;4944362;28;20039;-61
2021/12/24 05:43:32;;;;;;;13.23;4.95;;;;;;;6.61;89.62;98333.78;4952592;28;20031;-62
2021/12/24 05:45:57;;;;;;;10.85;4.30;;;;;;;6.53;89.51;98332.28;4950608;28;20047;-61
2021/12/24 05:48:22;;;;;;;8.60;3.90;;;;;;;6.51;90.14;98336.25;4949089;28;20027;-62
2021/12/24 05:50:48;;;;;;;17.80;4.90;;;;;;;6.43;90.24;98345.41;4951298;28;20043;-58
2021/12/24 05:53:13;;;;;;;10.30;4.88;;;;;;;6.32;90.72;98351.59;4952662;28;20027;-59
2021/12/24 05:55:39;;;;;;;12.65;4.72;;;;;;;6.40;90.96;98353.88;4956555;28;20046;-59
2021/12/24 05:58:07;;;;;;;11.43;4.97;;;;;;;6.39;90.61;98347.75;4954654;28;20027;-59
2021/12/24 06:00:38;;;;;;;11.02;5.15;;;;;;;6.46;90.37;98344.94;4953894;28;20338;-59
2021/12/24 06:03:03;;;;;;;;;;;;;;;6.42;90.51;98341.16;4954478;28;20027;-59
2021/12/24 06:05:28;;;;;;;8.95;4.88;;;;;;;6.34;91.08;98347.66;4956758;28;20269;-59
2021/12/24 06:07:54;;;;;;;12.25;4.75;;;;;;;6.34;90.96;98352.16;4949410;28;20034;-59
2021/12/24 06:10:19;;;;;;;11.88;4.53;;;;;;;6.31;91.21;98357.94;4948568;28;20107;-58
2021/12/24 06:12:45;;;;;;;12.20;5.93;;;;;;;6.32;91.41;98356.94;4948558;28;20059;-59
2021/12/24 06:15:10;;;;;;;11.13;5.03;;;;;;;6.32;91.18;98359.59;4952166;28;20019;-59
2021/12/24 06:17:38;;;;;;;10.63;4.65;;;;;;;6.38;91.35;98362.09;4952267;28;20046;-58
2021/12/24 06:20:05;;;;;;;13.98;5.45;;;;;;;6.41;90.95;98361.63;4947512;28;20737;-62
2021/12/24 06:22:31;;;;;;;10.07;4.93;;;;;;;6.39;90.87;98368.22;4949335;28;20047;-59
2021/12/24 06:24:57;;;;;;;11.15;4.63;;;;;;;6.41;90.90;98374.13;4949640;28;20110;-59
2021/12/24 06:27:22;;;;;;;9.48;4.47;;;;;;;6.37;91.26;98373.00;4950799;28;20057;-59
2021/12/24 06:29:48;;;;;;;12.30;4.95;;;;;;;6.38;91.40;98363.94;4947371;28;20765;-60
2021/12/24 06:32:14;;;;;;;12.35;5.03;;;;;;;6.41;91.13;98358.94;4951248;28;20053;-59
2021/12/24 06:34:39;;;;;;;98.18;53.22;;;;;;;6.41;91.12;98356.28;4957134;28;20038;-59
2021/12/24 06:37:05;;;;;;;47.17;30.75;;;;;;;6.47;91.22;98357.22;4949252;28;20039;-59
2021/12/24 06:39:30;;;;;;;57.30;33.33;;;;;;;6.48;90.94;98361.47;4955208;28;20469;-59
2021/12/24 06:41:55;;;;;;;35.75;17.45;;;;;;;6.47;90.87;98351.91;4953303;28;20039;-59
2021/12/24 06:44:21;;;;;;;31.00;20.00;;;;;;;6.65;90.39;98369.53;4954953;28;20034;-59
2021/12/24 06:46:47;;;;;;;18.45;11.18;;;;;;;6.54;90.64;98368.53;4952084;28;20059;-59
2021/12/24 06:49:13;;;;;;;44.90;20.88;;;;;;;6.46;90.71;98366.22;4953444;28;20375;-61
2021/12/24 06:51:38;;;;;;;25.02;14.68;;;;;;;6.51;90.69;98376.97;4950247;28;20532;-59
2021/12/24 06:54:04;;;;;;;40.75;20.60;;;;;;;6.55;90.25;98370.16;4953668;28;20316;-60
2021/12/24 06:56:29;;;;;;;27.77;17.58;;;;;;;6.52;90.30;98372.50;4951378;28;20441;-60
2021/12/24 06:58:55;;;;;;;10.38;4.35;;;;;;;6.59;90.47;98375.78;4949655;28;20533;-60
2021/12/24 07:01:20;;;;;;;17.73;9.40;;;;;;;6.64;89.67;98379.38;4949773;28;20446;-60
2021/12/24 07:03:46;;;;;;;11.38;5.60;;;;;;;6.59;90.14;98371.31;4951638;28;20058;-60
2021/12/24 07:06:11;;;;;;;20.85;7.97;;;;;;;6.59;89.70;98376.63;4952686;28;20481;-60
2021/12/24 07:08:37;;;;;;;12.98;5.53;;;;;;;6.56;90.39;98366.44;4954230;28;20399;-60
2021/12/24 07:11:02;;;;;;;10.80;6.05;;;;;;;6.63;90.03;98377.75;4956565;28;20062;-60
2021/12/24 07:13:28;;;;;;;9.93;5.53;;;;;;;6.62;89.74;98378.81;4956983;28;20728;-61
2021/12/24 07:15:53;;;;;;;24.88;13.73;;;;;;;6.62;89.96;98381.47;4955021;28;20046;-60
2021/12/24 07:18:18;;;;;;;18.75;7.85;;;;;;;6.59;90.10;98387.28;4940874;28;20075;-61
2021/12/24 07:20:44;;;;;;;10.45;4.80;;;;;;;6.59;89.77;98386.44;4933103;28;20450;-60
2021/12/24 07:23:09;;;;;;;12.20;5.82;;;;;;;5.95;91.25;98386.47;4925368;29;20175;-60
2021/12/24 07:25:35;;;;;;;15.73;6.75;;;;;;;5.47;94.12;98384.84;4931857;28;20421;-60
2021/12/24 07:28:03;;;;;;;16.02;7.28;;;;;;;5.41;95.15;98392.66;4931144;28;20114;-60
2021/12/24 07:30:28;;;;;;;17.42;6.82;;;;;;;5.36;96.04;98389.09;4936846;28;20075;-59
2021/12/24 07:32:54;;;;;;;14.95;7.45;;;;;;;5.44;96.21;98390.59;4936266;28;20035;-59
2021/12/24 07:35:19;;;;;;;17.38;7.50;;;;;;;5.32;96.52;98388.75;4925647;28;20229;-60
2021/12/24 07:37:45;;;;;;;19.40;8.30;;;;;;;5.25;96.94;98381.91;4928900;28;20600;-60
2021/12/24 07:40:12;;;;;;;14.73;6.85;;;;;;;5.27;97.54;98390.47;4932371;28;20040;-59
2021/12/24 07:42:38;;;;;;;17.73;7.70;;;;;;;5.27;97.67;98385.16;4930453;28;20113;-59
2021/12/24 07:45:05;;;;;;;13.30;6.70;;;;;;;5.26;97.76;98389.63;4931979;28;20043;-60
2021/12/24 07:47:38;;;;;;;17.85;6.63;;;;;;;5.32;97.69;98382.63;4932145;28;20044;-60
2021/12/24 07:50:17;;;;;;;18.85;8.48;;;;;;;5.25;98.04;98376.59;4929843;28;20146;-60
2021/12/24 07:52:43;;;;;;;15.18;6.45;;;;;;;5.37;97.66;98374.78;4937196;28;20031;-60
2021/12/24 07:55:10;;;;;;;13.60;4.82;;;;;;;5.33;97.82;98379.72;4934649;28;20142;-60
2021/12/24 07:57:36;;;;;;;15.40;7.15;;;;;;;5.33;97.66;98379.72;4937060;28;20514;-60
2021/12/24 08:00:03;;;;;;;19.80;8.77;;;;;;;5.32;98.16;98382.63;4935534;28;20031;-60
2021/12/24 08:02:29;;;;;;;18.73;8.43;;;;;;;5.34;98.23;98370.72;4934737;28;20095;-61
2021/12/24 08:04:56;;;;;;;14.05;7.38;;;;;;;5.41;98.01;98360.78;4933713;28;20023;-59
2021/12/24 08:07:21;;;;;;;13.48;7.70;;;;;;;5.41;98.14;98366.09;4930367;28;20054;-60
2021/12/24 08:09:50;;;;;;;17.00;7.90;;;;;;;5.44;97.76;98364.00;4929316;28;20035;-60
2021/12/24 08:12:15;;;;;;;19.67;8.38;;;;;;;5.47;98.01;98368.91;4932998;28;20282;-59
2021/12/24 08:14:41;;;;;;;20.40;7.85;;;;;;;5.47;97.77;98368.91;4935552;28;20397;-59
2021/12/24 08:17:06;;;;;;;19.50;8.60;;;;;;;5.49;97.92;98378.25;4934611;28;20106;-60
2021/12/24 08:19:32;;;;;;;16.55;8.57;;;;;;;5.45;98.18;98377.09;4937492;29;20414;-60
2021/12/24 08:21:58;;;;;;;18.13;8.95;;;;;;;5.51;98.11;98370.03;4934755;28;20043;-60
2021/12/24 08:24:23;;;;;;;20.77;9.38;;;;;;;5.49;97.99;98377.41;4930750;28;20591;-60
2021/12/24 08:26:49;;;;;;;18.02;8.95;;;;;;;5.50;98.39;98381.72;4935253;28;20051;-60
2021/12/24 08:29:14;;;;;;;17.85;9.15;;;;;;;5.46;98.05;98384.00;4938769;29;20039;-60
2021/12/24 08:31:40;;;;;;;22.33;8.32;;;;;;;5.48;98.16;98373.16;4939156;28;20043;-59
2021/12/24 08:34:05;;;;;;;74.25;15.10;;;;;;;5.49;98.21;98361.47;4934051;29;20042;-59
2021/12/24 08:36:31;;;;;;;13.52;7.10;;;;;;;5.46;97.78;98351.31;4928546;28;20142;-60
2021/12/24 08:38:56;;;;;;;19.60;9.10;;;;;;;5.49;98.03;98358.81;4914163;29;20525;-60
2021/12/24 08:41:23;;;;;;;15.13;7.97;;;;;;;5.39;98.65;98362.88;4932955;29;20147;-60
2021/12/24 08:43:48;;;;;;;19.27;9.13;;;;;;;5.44;98.49;98364.00;4936486;29;20028;-60
2021/12/24 08:46:14;;;;;;;20.15;9.15;;;;;;;5.48;97.79;98349.25;4935097;28;20043;-60
2021/12/24 08:48:39;;;;;;;22.35;9.05;;;;;;;5.40;98.00;98340.56;4933839;29;20038;-59
2021/12/24 08:51:05;;;;;;;16.92;6.47;;;;;;;5.35;98.51;98334.34;4915608;29;20517;-60
2021/12/24 08:53:30;;;;;;;21.33;10.48;;;;;;;5.41;98.54;98328.88;4936047;29;20071;-60
2021/12/24 08:55:56;;;;;;;14.57;7.93;;;;;;;5.39;98.26;98335.47;4934917;28;20078;-60
2021/12/24 08:58:21;;;;;;;24.05;9.18;;;;;;;5.40;98.35;98343.22;4926668;29;20040;-59
2021/12/24 09:00:47;;;;;;;20.73;8.32;;;;;;;5.35;98.23;98337.78;4909784;29;20537;-60
2021/12/24 09:03:12;;;;;;;19.05;9.57;;;;;;;5.46;98.12;98340.69;4929667;29;20803;-60
2021/12/24 09:05:37;;;;;;;14.10;7.13;;;;;;;5.46;97.71;98338.81;4934377;29;20650;-59
2021/12/24 09:08:03;;;;;;;20.92;10.15;;;;;;;5.41;98.21;98344.81;4932315;29;20121;-59
2021/12/24 09:10:29;;;;;;;16.23;8.60;;;;;;;5.49;98.31;98341.03;4929884;29;20742;-59
2021/12/24 09:12:54;;;;;;;18.83;9.23;;;;;;;5.45;98.29;98323.13;4930353;29;20039;-59
2021/12/24 09:15:21;;;;;;;18.48;8.00;;;;;;;5.39;98.22;98320.34;4935937;28;20741;-59
2021/12/24 09:17:47;;;;;;;20.60;9.57;;;;;;;5.46;98.08;98308.78;4936889;28;20170;-59
2021/12/24 09:20:21;;;;;;;18.60;9.20;;;;;;;5.56;97.72;98314.31;4951034;28;20085;-59
2021/12/24 09:22:48;;;;;;;18.20;9.10;;;;;;;5.52;97.48;98318.50;4948459;28;20026;-59
2021/12/24 09:25:13;;;;;;;16.95;8.85;;;;;;;5.53;97.40;98323.56;4948556;28;20062;-61
2021/12/24 09:27:39;;;;;;;19.10;8.65;;;;;;;5.65;97.07;98312.94;4955118;28;20031;-59
2021/12/24 09:30:05;;;;;;;18.10;9.00;;;;;;;5.56;97.11;98319.66;4957133;28;20049;-59
2021/12/24 09:32:30;;;;;;;22.80;9.85;;;;;;;5.60;97.62;98320.81;4953103;28;20035;-59
2021/12/24 09:34:56;;;;;;;20.55;9.52;;;;;;;5.56;97.57;98309.81;4952594;28;20034;-59
2021/12/24 09:37:22;;;;;;;20.27;9.07;;;;;;;5.68;96.86;98319.66;4952688;28;20047;-61
2021/12/24 09:39:47;;;;;;;19.08;9.00;;;;;;;5.62;96.80;98324.06;4954504;28;20519;-59
2021/12/24 09:42:13;;;;;;;19.05;9.25;;;;;;;5.60;97.61;98321.63;4955341;28;20078;-62
2021/12/24 09:44:38;;;;;;;22.02;8.40;;;;;;;5.67;97.09;98316.19;4947393;28;20038;-59
2021/12/24 09:47:04;;;;;;;26.30;9.55;;;;;;;5.71;97.05;98314.66;4949234;28;20600;-60
2021/12/24 09:49:29;;;;;;;17.98;9.13;;;;;;;5.73;97.00;98320.56;4951476;28;20073;-61
2021/12/24 09:51:55;;;;;;;19.20;9.77;;;;;;;5.76;97.01;98324.59;4958509;28;20051;-59
2021/12/24 09:54:22;;;;;;;18.63;8.20;;;;;;;5.79;96.64;98314.31;4949927;28;20023;-59
2021/12/24 09:56:48;;;;;;;17.05;7.85;;;;;;;5.90;96.63;98319.84;4951030;28;20050;-61
2021/12/24 09:59:13;;;;;;;21.13;8.55;;;;;;;5.90;96.34;98317.19;4955736;28;20536;-60
2021/12/24 10:01:42;;;;;;;21.08;9.55;;;;;;;5.97;95.91;98316.06;4958632;28;20050;-61
2021/12/24 10:04:09;;;;;;;20.58;9.88;;;;;;;6.04;95.62;98330.03;4954319;28;20073;-61
2021/12/24 10:06:35;;;;;;;19.30;9.45;;;;;;;6.14;95.18;98312.63;4951695;28;20347;-60
2021/12/24 10:09:09;;;;;;;21.48;8.13;;;;;;;6.24;94.85;98308.34;4948323;28;20493;-60
2021/12/24 10:11:49;;;;;;;23.73;9.80;;;;;;;6.21;94.79;98315.97;4943601;28;20043;-61
2021/12/24 10:14:15;;;;;;;17.92;8.77;;;;;;;6.29;94.50;98296.16;4951244;28;20110;-61
2021/12/24 10:16:44;;;;;;;24.73;7.78;;;;;;;6.35;94.55;98305.88;4944997;28;20069;-61
2021/12/24 10:19:10;;;;;;;15.23;7.47;;;;;;;6.32;94.25;98307.16;4946705;28;20039;-61
2021/12/24 10:21:35;;;;;;;17.85;8.95;;;;;;;6.36;94.44;98312.81;4940998;28;20351;-61
2021/12/24 10:24:03;;;;;;;18.02;8.13;;;;;;;6.39;94.07;98307.84;4946313;28;20034;-60
2021/12/24 10:26:38;;;;;;;21.38;8.60;;;;;;;6.42;94.04;98302.03;4949178;28;20085;-61
2021/12/24 10:29:09;;;;;;;21.30;8.35;;;;;;;6.51;93.53;98296.31;4946069;28;20455;-61
2021/12/24 10:31:49;;;;;;;16.63;7.88;;;;;;;6.46;93.41;98299.69;4948658;28;20803;-59
2021/12/24 10:34:28;;;;;;;17.60;8.02;;;;;;;6.49;93.35;98299.22;4954152;28;20039;-59
2021/12/24 10:37:05;;;;;;;18.33;7.78;;;;;;;6.52;92.91;98304.06;4949180;28;20095;-59
2021/12/24 10:39:33;;;;;;;18.83;7.55;;;;;;;6.64;92.53;98299.50;4944995;28;20082;-59
2021/12/24 10:42:01;;;;;;;16.92;7.40;;;;;;;6.92;91.19;98297.84;4953150;28;20671;-59
2021/12/24 10:44:28;;;;;;;18.80;8.10;;;;;;;7.54;88.60;98283.59;4947502;28;20030;-61
2021/12/24 10:47:06;;;;;;;21.20;7.70;;;;;;;7.88;86.77;98286.94;4933584;28;20089;-60
2021/12/24 10:49:51;;;;;;;17.27;7.70;;;;;;;7.93;85.58;98294.22;4949355;28;20066;-59
2021/12/24 10:54:51;;;;;;;17.70;7.22;;;;;;;7.35;88.82;98283.03;4953067;28;20042;-59
2021/12/24 10:57:20;;;;;;;24.95;6.72;;;;;;;7.50;87.91;98274.47;4947847;28;20608;-59
2021/12/24 10:59:49;;;;;;;22.23;7.68;;;;;;;7.39;88.17;98260.19;4954163;28;20486;-59
2021/12/24 11:02:15;;;;;;;16.73;6.93;;;;;;;7.22;88.57;98264.72;4957523;28;20043;-59
2021/12/24 11:04:41;;;;;;;17.77;7.00;;;;;;;7.38;88.69;98261.22;4951460;28;20535;-59
2021/12/24 11:07:31;;;;;;;14.88;5.65;;;;;;;7.33;88.36;98261.16;4956402;28;20046;-59
2021/12/24 11:10:19;;;;;;;12.85;5.30;;;;;;;7.32;88.23;98262.22;4954490;28;20035;-59
2021/12/24 11:12:47;;;;;;;18.38;5.43;;;;;;;7.38;87.53;98281.75;4953052;28;20047;-59
2021/12/24 11:15:25;;;;;;;15.18;5.88;;;;;;;7.35;87.02;98283.03;4950186;28;20027;-59
2021/12/24 11:17:52;;;;;;;16.13;4.78;;;;;;;7.37;86.58;98275.63;4948863;28;20509;-59
2021/12/24 11:20:18;;;;;;;13.68;4.57;;;;;;;7.39;85.81;98262.03;4954542;28;20478;-61
2021/12/24 11:22:56;;;;;;;14.38;4.00;;;;;;;7.51;85.22;98268.06;4957673;28;20062;-59
2021/12/24 11:25:23;;;;;;;13.07;4.80;;;;;;;7.68;85.03;98265.34;4957102;28;20046;-59
2021/12/24 11:27:49;;;;;;;18.55;4.82;;;;;;;7.81;83.94;98264.97;4959083;28;20042;-59
2021/12/24 11:30:15;;;;;;;12.02;3.55;;;;;;;7.85;83.48;98263.44;4958216;28;20115;-59
2021/12/24 11:32:40;;;;;;;9.93;3.15;;;;;;;8.04;82.71;98279.13;4953492;28;20066;-59
2021/12/24 11:35:06;;;;;;;9.93;3.10;;;;;;;8.00;82.95;98276.16;4950267;28;20477;-59
2021/12/24 11:37:31;;;;;;;14.02;3.40;;;;;;;7.97;82.05;98274.81;4953966;28;20936;-59
2021/12/24 11:39:57;;;;;;;9.23;3.22;;;;;;;7.99;81.59;98270.03;4942347;28;20038;-59
2021/12/24 11:42:24;;;;;;;15.32;3.25;;;;;;;8.10;81.52;98267.47;4955159;28;20070;-59
2021/12/24 11:44:49;;;;;;;13.38;3.00;;;;;;;8.17;80.83;98262.75;4954775;28;20027;-59
2021/12/24 11:47:15;;;;;;;18.20;3.20;;;;;;;8.20;80.96;98262.25;4952982;28;20752;-59
2021/12/24 11:49:40;;;;;;;14.00;3.58;;;;;;;8.12;81.10;98260.84;4954158;28;20027;-59
2021/12/24 11:52:06;;;;;;;13.52;3.28;;;;;;;8.16;81.85;98269.97;4948733;28;20139;-59
2021/12/24 11:54:31;;;;;;;17.15;3.70;;;;;;;8.08;81.63;98269.59;4955136;28;20367;-59
2021/12/24 11:56:56;;;;;;;21.98;6.22;;;;;;;7.95;81.91;98258.22;4949151;28;20062;-60
2021/12/24 11:59:38;;;;;;;11.57;3.60;;;;;;;7.96;82.14;98262.53;4935266;28;20566;-59
2021/12/24 12:02:04;;;;;;;17.20;4.05;;;;;;;8.02;81.46;98251.91;4952009;28;20306;-59
2021/12/24 12:04:29;;;;;;;13.45;3.50;;;;;;;8.14;80.73;98252.59;4950271;28;20530;-59
2021/12/24 12:07:11;;;;;;;13.98;3.50;;;;;;;8.53;79.82;98239.09;4952829;28;20043;-60
2021/12/24 12:09:40;;;;;;;9.90;2.88;;;;;;;8.74;79.35;98238.25;4952890;28;20026;-59
2021/12/24 12:12:06;;;;;;;10.98;3.38;;;;;;;8.67;78.41;98232.31;4954063;28;20066;-60
2021/12/24 12:14:33;;;;;;;11.35;3.42;;;;;;;8.48;78.41;98241.72;4947294;28;20139;-59
2021/12/24 12:17:01;;;;;;;12.32;3.33;;;;;;;8.26;79.04;98236.41;4948568;28;20616;-59
2021/12/24 12:19:49;;;;;;;13.73;3.13;;;;;;;8.12;79.89;98233.34;4957544;28;20545;-59
2021/12/24 12:23:01;;;;;;;10.35;2.88;;;;;;;8.03;79.99;98224.16;4953081;28;20134;-59
2021/12/24 12:25:33;;;;;;;12.00;3.65;;;;;;;7.83;81.08;98214.88;4945178;28;20051;-60
2021/12/24 12:27:59;;;;;;;13.40;3.67;;;;;;;7.87;80.90;98210.66;4957888;28;20061;-60
2021/12/24 12:30:46;;;;;;;13.38;3.75;;;;;;;8.00;80.61;98204.91;4955764;28;20815;-60
2021/12/24 12:33:13;;;;;;;15.07;4.30;;;;;;;8.11;81.22;98210.38;4949376;28;20035;-60
2021/12/24 12:35:41;;;;;;;14.48;5.00;;;;;;;8.02;81.56;98203.88;4946256;28;20049;-59
2021/12/24 12:38:36;;;;;;;11.45;4.35;;;;;;;8.27;81.42;98203.34;4949811;28;20035;-60
2021/12/24 12:41:35;;;;;;;14.63;4.72;;;;;;;8.20;82.41;98214.19;4949294;28;20047;-60
2021/12/24 12:44:07;;;;;;;11.57;5.03;;;;;;;8.36;81.94;98217.81;4949335;28;20039;-60
2021/12/24 12:46:35;;;;;;;13.98;4.90;;;;;;;8.37;82.12;98222.91;4945984;28;20130;-60
2021/12/24 12:49:05;;;;;;;16.70;5.53;;;;;;;8.33;82.36;98213.78;4953828;28;20034;-60
2021/12/24 12:51:56;;;;;;;12.55;4.60;;;;;;;8.26;82.27;98207.03;4947866;28;20723;-59
2021/12/24 12:54:41;;;;;;;16.70;4.50;;;;;;;8.46;81.52;98209.13;4954517;28;20118;-59
2021/12/24 12:57:15;;;;;;;12.80;4.97;;;;;;;8.36;81.77;98207.97;4956090;28;20047;-60
2021/12/24 12:59:41;;;;;;;14.65;4.40;;;;;;;8.36;81.96;98210.63;4949421;28;20022;-59
2021/12/24 13:02:07;;;;;;;11.18;4.28;;;;;;;8.35;81.68;98205.53;4949211;28;20070;-60
2021/12/24 13:04:32;;;;;;;9.45;3.58;;;;;;;8.38;80.96;98213.84;4948680;28;20027;-60
2021/12/24 13:06:58;;;;;;;13.70;3.60;;;;;;;8.34;81.32;98209.28;4951024;28;20047;-59
2021/12/24 13:09:28;;;;;;;8.07;3.15;;;;;;;8.39;80.82;98206.66;4950083;28;20143;-60